Time;durP1;ratioP1;P1;durP2;ratioP2;P2;SDS_P1;SDS_P2;PMS_P1;PMS_P2;Temp;Humidity;BMP_temperature;BMP_pressure;BME280_temperature;BME280_humidity;BME280_pressure;Samples;Min_cycle;Max_cycle;Signal;HPM_P1;HPM_P2
2021/11/19 00:01:26;;;;;;;62.13;22.20;;;;;;;1.06;77.07;99029.38;5105397;28;20039;-67
2021/11/19 00:03:53;;;;;;;65.38;22.60;;;;;;;1.18;77.41;99037.50;5114198;28;20043;-67
2021/11/19 00:06:19;;;;;;;67.15;22.60;;;;;;;1.19;77.07;99028.78;5114492;28;20048;-65
2021/11/19 00:08:50;;;;;;;68.63;22.63;;;;;;;1.21;76.72;99030.38;5113444;28;20034;-67
2021/11/19 00:11:19;;;;;;;71.27;22.90;;;;;;;1.14;77.55;99026.38;5109429;28;20036;-67
2021/11/19 00:13:47;;;;;;;67.68;22.20;;;;;;;1.11;77.65;99024.78;5095700;28;20090;-69
2021/11/19 00:16:14;;;;;;;71.70;23.83;;;;;;;1.06;77.49;99023.31;5100569;28;20241;-67
2021/11/19 00:18:40;;;;;;;67.57;23.10;;;;;;;1.20;77.74;99014.84;5093868;28;20070;-66
2021/11/19 00:21:06;;;;;;;62.15;21.73;;;;;;;1.21;77.57;99014.75;5092262;28;20048;-67
2021/11/19 00:23:32;;;;;;;73.10;23.30;;;;;;;1.18;77.11;99001.03;5112058;28;20127;-67
2021/11/19 00:25:58;;;;;;;63.50;22.00;;;;;;;1.22;77.08;99002.56;5113956;28;20094;-68
2021/11/19 00:28:24;;;;;;;69.50;21.40;;;;;;;1.21;77.09;99004.34;5112830;28;20075;-68
2021/11/19 00:30:50;;;;;;;76.53;22.75;;;;;;;1.21;76.98;98995.66;5103361;28;20056;-68
2021/11/19 00:33:16;;;;;;;72.20;21.98;;;;;;;1.20;77.60;99001.81;5101423;28;20377;-68
2021/11/19 00:35:44;;;;;;;67.95;22.20;;;;;;;1.18;77.67;98999.25;5102494;28;20446;-66
2021/11/19 00:38:12;;;;;;;66.68;22.60;;;;;;;1.18;77.38;98995.81;5111606;28;20131;-65
2021/11/19 00:40:46;;;;;;;63.20;20.83;;;;;;;1.19;77.52;98993.16;5095072;28;20047;-65
2021/11/19 00:43:12;;;;;;;64.63;22.80;;;;;;;1.10;77.83;98989.22;5111230;28;20043;-65
2021/11/19 00:45:39;;;;;;;65.63;21.52;;;;;;;1.19;77.93;98989.72;5112074;28;20050;-66
2021/11/19 00:48:08;;;;;;;69.80;22.50;;;;;;;1.20;77.82;98994.00;5111850;28;20047;-66
2021/11/19 00:50:41;;;;;;;66.65;22.08;;;;;;;1.24;77.24;98985.09;5100743;28;20472;-66
2021/11/19 00:53:07;;;;;;;68.97;21.30;;;;;;;1.34;77.06;98981.13;5106713;28;20035;-65
2021/11/19 00:55:34;;;;;;;68.72;21.27;;;;;;;1.33;76.85;98971.59;5111615;28;20055;-66
2021/11/19 00:58:00;;;;;;;67.82;22.33;;;;;;;1.30;77.47;98971.78;5111241;28;20059;-65
2021/11/19 01:00:35;;;;;;;67.88;22.90;;;;;;;1.35;77.16;98969.78;5108759;28;20055;-65
2021/11/19 01:03:01;;;;;;;68.00;20.33;;;;;;;1.35;77.18;98966.34;5103173;28;20039;-66
2021/11/19 01:05:27;;;;;;;68.10;21.73;;;;;;;1.29;77.21;98973.53;5113431;27;20050;-67
2021/11/19 01:07:53;;;;;;;64.18;20.85;;;;;;;1.35;77.92;98971.56;5111585;28;20496;-66
2021/11/19 01:10:28;;;;;;;66.28;22.00;;;;;;;1.37;77.67;98964.47;5111647;28;20122;-66
2021/11/19 01:12:55;;;;;;;66.05;21.25;;;;;;;1.36;76.81;98962.78;5094643;28;20082;-67
2021/11/19 01:15:32;;;;;;;65.90;22.65;;;;;;;1.35;76.98;98951.53;5112046;27;20574;-67
2021/11/19 01:18:30;;;;;;;61.43;21.93;;;;;;;1.39;77.27;98955.66;5109847;28;20097;-66
2021/11/19 01:20:59;;;;;;;73.35;21.17;;;;;;;1.36;77.67;98955.84;5104842;27;20077;-66
2021/11/19 01:23:26;;;;;;;62.22;22.33;;;;;;;1.37;76.89;98948.84;5093033;28;20051;-66
2021/11/19 01:26:02;;;;;;;63.90;19.60;;;;;;;1.42;77.64;98952.91;5100594;28;20089;-67
2021/11/19 01:28:28;;;;;;;62.08;20.58;;;;;;;1.38;77.25;98953.97;5110829;28;20108;-67
2021/11/19 01:31:05;;;;;;;64.38;20.92;;;;;;;1.37;77.75;98959.28;5110437;28;20509;-66
2021/11/19 01:33:31;;;;;;;60.28;19.85;;;;;;;1.36;77.18;98957.59;5094466;28;20050;-67
2021/11/19 01:36:23;;;;;;;63.83;22.27;;;;;;;1.32;77.22;98961.28;5111338;28;20075;-67
2021/11/19 01:39:12;;;;;;;63.13;20.33;;;;;;;1.28;78.33;98960.59;5106345;28;20074;-66
2021/11/19 01:42:03;;;;;;;61.05;19.38;;;;;;;1.27;77.36;98956.28;5111315;28;20424;-66
2021/11/19 01:44:36;;;;;;;69.72;20.83;;;;;;;1.35;78.23;98961.97;5111241;28;20070;-66
2021/11/19 01:47:06;;;;;;;67.28;20.05;;;;;;;1.41;77.48;98953.84;5110269;28;20074;-66
2021/11/19 01:49:34;;;;;;;66.15;21.00;;;;;;;1.34;77.17;98947.25;5107577;28;20137;-66
2021/11/19 01:52:12;;;;;;;66.20;21.48;;;;;;;1.35;77.32;98954.16;5093063;28;20046;-66
2021/11/19 01:54:55;;;;;;;62.38;20.50;;;;;;;1.33;78.13;98953.38;5090432;28;20500;-66
2021/11/19 01:57:27;;;;;;;69.13;21.42;;;;;;;1.37;77.98;98960.13;5090551;28;20048;-67
2021/11/19 02:00:19;;;;;;;67.28;21.98;;;;;;;1.37;78.31;98961.88;5076932;28;20063;-67
2021/11/19 02:02:53;;;;;;;61.30;19.23;;;;;;;1.34;78.16;98951.63;5085870;28;20048;-67
2021/11/19 02:05:38;;;;;;;61.53;20.60;;;;;;;1.35;77.92;98951.53;5109373;28;20040;-69
2021/11/19 02:08:16;;;;;;;60.47;19.67;;;;;;;1.37;77.41;98944.50;5092626;28;20528;-66
2021/11/19 02:11:06;;;;;;;70.93;21.20;;;;;;;1.33;77.71;98942.94;5094665;28;20039;-66
2021/11/19 02:13:46;;;;;;;63.30;18.77;;;;;;;1.29;78.59;98944.03;5108967;28;20452;-68
2021/11/19 02:16:18;;;;;;;63.58;19.48;;;;;;;1.35;78.77;98935.91;5091871;28;20197;-68
2021/11/19 02:18:49;;;;;;;65.20;21.30;;;;;;;1.36;78.43;98940.22;5088371;28;20048;-69
2021/11/19 02:21:25;;;;;;;65.00;20.00;;;;;;;1.41;78.25;98935.59;5111137;28;20138;-67
2021/11/19 02:24:04;;;;;;;61.20;19.63;;;;;;;1.39;77.70;98937.44;5093895;28;20045;-67
2021/11/19 02:26:40;;;;;;;58.13;19.05;;;;;;;1.33;78.11;98932.53;5085006;28;20044;-68
2021/11/19 02:29:08;;;;;;;57.25;19.08;;;;;;;1.27;78.28;98938.06;5092810;28;20063;-66
2021/11/19 02:31:44;;;;;;;;;;;;;;;1.24;78.27;98931.25;5106891;28;20070;-67
2021/11/19 02:34:10;;;;;;;61.05;18.98;;;;;;;1.30;78.97;98924.88;5085072;28;19973;-67
2021/11/19 02:36:48;;;;;;;69.55;20.00;;;;;;;1.41;78.74;98929.56;5103679;28;20069;-71
2021/11/19 02:39:30;;;;;;;67.53;20.90;;;;;;;1.44;78.36;98932.81;5104411;28;20096;-68
2021/11/19 02:42:09;;;;;;;66.10;18.38;;;;;;;1.32;78.86;98933.47;5111002;28;20046;-67
2021/11/19 02:44:36;;;;;;;62.45;20.05;;;;;;;1.32;78.81;98928.28;5113965;28;20078;-67
2021/11/19 02:47:10;;;;;;;58.17;18.15;;;;;;;1.41;78.13;98919.97;5097933;28;20070;-67
2021/11/19 02:49:38;;;;;;;57.95;19.85;;;;;;;1.45;78.39;98926.69;5101809;28;20093;-68
2021/11/19 02:52:06;;;;;;;73.82;24.15;;;;;;;1.42;78.09;98932.06;5103489;28;20508;-68
2021/11/19 02:54:32;;;;;;;;;;;;;;;1.44;78.42;98929.38;5107275;28;20523;-67
2021/11/19 02:57:00;;;;;;;60.80;19.85;;;;;;;1.49;78.52;98926.56;5112756;28;20384;-67
2021/11/19 02:59:29;;;;;;;59.67;19.58;;;;;;;1.47;77.68;98931.84;5112061;28;20048;-67
2021/11/19 03:02:08;;;;;;;57.60;19.17;;;;;;;1.53;78.48;98928.06;5114343;28;20071;-66
2021/11/19 03:04:45;;;;;;;58.45;19.98;;;;;;;1.59;77.98;98925.13;5099825;28;20052;-67
2021/11/19 03:07:12;;;;;;;57.03;18.85;;;;;;;1.51;77.81;98919.47;5109205;28;20034;-66
2021/11/19 03:09:45;;;;;;;70.03;23.83;;;;;;;1.52;78.02;98926.38;5108855;28;20044;-66
2021/11/19 03:12:14;;;;;;;55.97;18.08;;;;;;;1.55;78.41;98923.63;5110948;28;20039;-67
2021/11/19 03:14:40;;;;;;;65.85;21.08;;;;;;;1.49;78.44;98910.91;5113277;28;20055;-68
2021/11/19 03:17:08;;;;;;;67.95;20.23;;;;;;;1.54;78.15;98929.75;5095837;28;20031;-66
2021/11/19 03:19:34;;;;;;;59.05;20.17;;;;;;;1.59;78.23;98919.94;5110706;28;20051;-67
2021/11/19 03:22:01;;;;;;;59.83;18.30;;;;;;;1.65;77.37;98921.38;5101941;28;20472;-67
2021/11/19 03:24:27;;;;;;;55.38;17.73;;;;;;;1.63;77.30;98924.03;5106880;28;20036;-69
2021/11/19 03:26:54;;;;;;;61.33;20.17;;;;;;;1.56;78.24;98925.31;5105158;28;20054;-67
2021/11/19 03:29:23;;;;;;;60.22;19.25;;;;;;;1.59;78.44;98919.94;5098245;28;20127;-68
2021/11/19 03:31:50;;;;;;;57.83;18.33;;;;;;;1.61;77.46;98921.53;5097170;28;20035;-68
2021/11/19 03:34:18;;;;;;;58.47;18.42;;;;;;;1.67;77.51;98920.38;5105476;28;20047;-68
2021/11/19 03:36:47;;;;;;;54.97;18.48;;;;;;;1.70;78.21;98915.00;5096737;28;20078;-67
2021/11/19 03:39:15;;;;;;;60.67;19.38;;;;;;;1.74;77.78;98921.72;5108104;28;20055;-68
2021/11/19 03:41:43;;;;;;;61.35;18.88;;;;;;;1.65;77.15;98903.97;5113391;28;20051;-68
2021/11/19 03:44:15;;;;;;;68.10;19.67;;;;;;;1.66;78.05;98908.25;5112762;28;20043;-67
2021/11/19 03:46:58;;;;;;;58.83;18.27;;;;;;;1.72;77.39;98902.72;5112959;28;20043;-68
2021/11/19 03:49:25;;;;;;;58.80;18.52;;;;;;;1.73;77.11;98901.81;5113162;28;20188;-68
2021/11/19 03:52:05;;;;;;;64.28;19.63;;;;;;;1.71;77.04;98885.41;5096310;28;20051;-67
2021/11/19 03:54:33;;;;;;;57.90;19.48;;;;;;;1.69;77.31;98892.44;5113046;28;20039;-69
2021/11/19 03:56:59;;;;;;;55.85;20.90;;;;;;;1.78;76.84;98891.97;5112537;28;20050;-67
2021/11/19 03:59:26;;;;;;;62.67;17.45;;;;;;;1.80;76.94;98896.28;5096172;28;20050;-68
2021/11/19 04:01:56;;;;;;;57.55;17.52;;;;;;;1.77;77.59;98889.44;5114217;28;20032;-69
2021/11/19 04:04:25;;;;;;;53.58;17.75;;;;;;;1.75;77.33;98888.69;5112126;28;20047;-67
2021/11/19 04:06:51;;;;;;;57.22;19.90;;;;;;;1.80;77.46;98889.28;5114235;28;20047;-70
2021/11/19 04:09:19;;;;;;;56.72;18.50;;;;;;;1.81;77.35;98883.16;5111273;28;20050;-67
2021/11/19 04:11:47;;;;;;;133.90;39.92;;;;;;;1.80;77.44;98893.66;5111387;28;20044;-70
2021/11/19 04:14:13;;;;;;;56.75;19.80;;;;;;;1.85;76.87;98889.88;5111837;28;20122;-68
2021/11/19 04:16:45;;;;;;;66.55;19.10;;;;;;;1.84;76.92;98890.78;5113880;28;20217;-69
2021/11/19 04:19:13;;;;;;;54.10;19.48;;;;;;;1.81;77.03;98892.72;5113978;28;20043;-69
2021/11/19 04:21:40;;;;;;;60.72;20.20;;;;;;;1.89;76.84;98899.19;5112788;28;20036;-69
2021/11/19 04:24:09;;;;;;;55.85;19.20;;;;;;;1.86;77.02;98891.56;5112014;28;20434;-68
2021/11/19 04:26:35;;;;;;;56.95;17.75;;;;;;;1.88;77.50;98899.28;5112546;28;20542;-69
2021/11/19 04:29:04;;;;;;;61.63;19.17;;;;;;;1.93;76.72;98892.06;5111859;28;20065;-70
2021/11/19 04:31:50;;;;;;;65.72;18.92;;;;;;;1.86;76.71;98893.34;5113030;28;20047;-71
2021/11/19 04:34:16;;;;;;;66.47;18.98;;;;;;;1.89;77.71;98893.16;5111993;28;20048;-70
2021/11/19 04:36:42;;;;;;;60.63;18.55;;;;;;;1.96;77.08;98897.13;5078612;28;20059;-70
2021/11/19 04:39:11;;;;;;;61.50;17.05;;;;;;;1.86;77.37;98899.38;5112074;28;20084;-69
2021/11/19 04:41:37;;;;;;;;;;;;;;;1.83;77.63;98899.53;5112433;28;20092;-70
2021/11/19 04:44:08;;;;;;;56.90;17.40;;;;;;;1.86;77.49;98898.53;5111774;28;20014;-71
2021/11/19 04:46:47;;;;;;;61.78;19.60;;;;;;;1.81;77.37;98890.97;5079481;28;20068;-69
2021/11/19 04:49:14;;;;;;;54.33;17.98;;;;;;;1.80;77.62;98888.44;5111829;28;20041;-71
2021/11/19 04:51:42;;;;;;;69.05;19.05;;;;;;;1.78;77.96;98894.56;5111855;28;20056;-67
2021/11/19 04:54:10;;;;;;;54.15;16.70;;;;;;;1.74;77.47;98890.44;5111588;28;20488;-68
2021/11/19 04:56:38;;;;;;;63.50;18.50;;;;;;;1.73;77.90;98888.78;5111592;28;20504;-70
2021/11/19 04:59:05;;;;;;;70.53;18.77;;;;;;;1.79;77.48;98887.59;5111488;28;20089;-69
2021/11/19 05:01:34;;;;;;;156.20;39.72;;;;;;;1.74;78.06;98889.59;5110832;28;20066;-68
2021/11/19 05:04:04;;;;;;;62.60;19.73;;;;;;;1.72;78.01;98892.31;5112438;28;20387;-70
2021/11/19 05:06:31;;;;;;;62.97;19.05;;;;;;;1.77;78.29;98889.44;5111805;28;20434;-69
2021/11/19 05:08:59;;;;;;;59.75;17.38;;;;;;;1.74;78.06;98900.84;5094576;28;20039;-67
2021/11/19 05:11:37;;;;;;;57.83;17.63;;;;;;;1.79;77.90;98905.84;5110308;28;20112;-67
2021/11/19 05:14:06;;;;;;;61.58;17.98;;;;;;;1.74;78.13;98900.84;5109254;28;20040;-71
2021/11/19 05:16:35;;;;;;;55.70;17.75;;;;;;;1.71;78.53;98900.22;5094446;28;20492;-69
2021/11/19 05:19:03;;;;;;;59.75;18.15;;;;;;;1.69;78.28;98902.88;5111333;28;20096;-69
2021/11/19 05:21:30;;;;;;;51.97;17.73;;;;;;;1.74;78.07;98905.25;5109550;28;20134;-68
2021/11/19 05:23:57;;;;;;;64.10;19.77;;;;;;;1.72;78.39;98912.28;5093949;28;20054;-69
2021/11/19 05:26:22;;;;;;;57.47;18.00;;;;;;;1.78;78.69;98912.81;5110678;28;20384;-67
2021/11/19 05:28:49;;;;;;;53.70;18.25;;;;;;;1.77;78.21;98905.09;5111614;28;20403;-68
2021/11/19 05:31:17;;;;;;;63.38;18.40;;;;;;;1.81;78.35;98908.34;5111655;28;20048;-70
2021/11/19 05:33:45;;;;;;;56.75;17.10;;;;;;;1.92;78.28;98908.66;5093904;28;20042;-69
2021/11/19 05:36:11;;;;;;;60.22;21.05;;;;;;;1.97;78.40;98905.78;5101303;28;20100;-68
2021/11/19 05:38:40;;;;;;;65.93;19.17;;;;;;;1.99;77.58;98915.19;5099262;28;20054;-68
2021/11/19 05:41:10;;;;;;;65.68;19.33;;;;;;;2.03;77.81;98910.66;5100668;28;20682;-71
2021/11/19 05:43:39;;;;;;;57.70;16.70;;;;;;;2.05;77.55;98898.38;5098890;28;20499;-68
2021/11/19 05:46:18;;;;;;;60.35;19.10;;;;;;;2.07;78.02;98902.59;5100587;28;20488;-70
2021/11/19 05:48:49;;;;;;;58.60;16.90;;;;;;;1.97;78.19;98900.56;5097977;28;20036;-69
2021/11/19 05:51:16;;;;;;;61.17;18.33;;;;;;;1.96;78.25;98907.53;5099566;28;20047;-66
2021/11/19 05:53:45;;;;;;;62.08;18.73;;;;;;;2.00;78.01;98906.44;5081117;28;20135;-70
2021/11/19 05:56:13;;;;;;;64.30;18.30;;;;;;;2.02;78.10;98907.22;5100313;28;20127;-69
2021/11/19 05:58:39;;;;;;;59.85;18.08;;;;;;;2.14;77.19;98907.47;5084559;28;20035;-68
2021/11/19 06:01:11;;;;;;;49.92;16.58;;;;;;;2.08;77.37;98906.88;5101039;28;20451;-70
2021/11/19 06:03:51;;;;;;;60.03;19.23;;;;;;;2.08;77.42;98913.84;5098451;28;20047;-70
2021/11/19 06:06:36;;;;;;;54.70;19.30;;;;;;;2.10;77.30;98901.56;5102026;28;20131;-71
2021/11/19 06:09:14;;;;;;;68.22;21.50;;;;;;;2.02;77.65;98898.53;5101772;28;20122;-71
2021/11/19 06:11:44;;;;;;;93.47;30.20;;;;;;;2.09;77.59;98892.06;5101069;28;20051;-70
2021/11/19 06:14:14;;;;;;;55.45;17.80;;;;;;;2.07;77.86;98889.53;5097803;28;20043;-68
2021/11/19 06:16:45;;;;;;;56.92;15.98;;;;;;;2.14;77.37;98897.03;5101504;28;20143;-67
2021/11/19 06:19:18;;;;;;;54.60;17.23;;;;;;;2.08;78.28;98888.63;5099556;28;20067;-69
2021/11/19 06:21:50;;;;;;;57.38;16.25;;;;;;;2.09;78.02;98900.75;5088001;28;20048;-71
2021/11/19 06:24:22;;;;;;;50.67;16.52;;;;;;;2.04;77.78;98892.31;5110734;28;20043;-68
2021/11/19 06:26:48;;;;;;;51.40;18.58;;;;;;;2.04;77.65;98897.53;5093484;28;20517;-71
2021/11/19 06:29:17;;;;;;;56.40;16.40;;;;;;;2.08;77.81;98888.63;5093606;28;20523;-68
2021/11/19 06:31:49;;;;;;;57.88;18.60;;;;;;;2.19;77.59;98889.78;5093808;28;20040;-68
2021/11/19 06:34:15;;;;;;;54.28;17.23;;;;;;;2.25;77.78;98890.28;5100936;28;20521;-69
2021/11/19 06:36:42;;;;;;;58.28;18.08;;;;;;;2.17;77.50;98875.97;5090320;28;20550;-68
2021/11/19 06:39:10;;;;;;;54.22;17.88;;;;;;;2.08;77.66;98878.19;5089808;28;20050;-66
2021/11/19 06:41:36;;;;;;;60.88;17.52;;;;;;;2.14;77.96;98882.22;5073412;28;20043;-70
2021/11/19 06:44:39;;;;;;;61.13;17.35;;;;;;;2.17;77.60;98886.41;5048386;28;20045;-69
2021/11/19 06:47:44;;;;;;;58.25;18.30;;;;;;;2.16;77.98;98879.53;5052753;28;20447;-68
2021/11/19 06:50:38;;;;;;;66.32;19.27;;;;;;;2.19;77.61;98879.34;5055513;28;20048;-69
2021/11/19 06:53:27;;;;;;;63.03;20.15;;;;;;;2.19;77.92;98885.41;4988699;28;20085;-68
2021/11/19 06:56:11;;;;;;;63.42;19.92;;;;;;;2.24;77.93;98887.75;4989073;28;20058;-68
2021/11/19 06:59:07;;;;;;;61.95;18.27;;;;;;;2.23;77.53;98884.31;4950543;29;20134;-70
2021/11/19 07:01:33;;;;;;;59.53;19.30;;;;;;;2.24;77.47;98887.75;4934699;29;20047;-71
2021/11/19 07:03:59;;;;;;;67.47;21.20;;;;;;;2.27;77.40;98882.41;4931774;29;20051;-69
2021/11/19 07:06:25;;;;;;;65.95;18.02;;;;;;;2.31;77.86;98886.50;4942642;29;20524;-70
2021/11/19 07:08:51;;;;;;;54.50;18.52;;;;;;;2.41;77.53;98890.28;4928225;29;20059;-69
2021/11/19 07:11:21;;;;;;;60.00;17.70;;;;;;;2.40;77.39;98885.97;4927832;29;20173;-68
2021/11/19 07:13:49;;;;;;;56.08;17.13;;;;;;;2.46;77.15;98891.81;4928756;29;20051;-69
2021/11/19 07:16:16;;;;;;;59.33;18.55;;;;;;;2.39;76.72;98891.28;4928278;29;20139;-66
2021/11/19 07:18:43;;;;;;;52.38;16.48;;;;;;;2.41;76.70;98889.44;4933169;29;20440;-69
2021/11/19 07:21:09;;;;;;;54.08;16.45;;;;;;;2.33;77.46;98883.81;4958610;28;20088;-68
2021/11/19 07:23:35;;;;;;;55.45;17.27;;;;;;;2.38;77.40;98887.84;4983617;28;20517;-70
2021/11/19 07:26:05;;;;;;;61.10;17.00;;;;;;;2.50;76.78;98888.09;4980396;28;20040;-69
2021/11/19 07:28:31;;;;;;;51.53;15.15;;;;;;;2.47;76.98;98883.88;4958972;28;20660;-69
2021/11/19 07:31:23;;;;;;;54.40;15.55;;;;;;;2.54;76.71;98882.59;5037404;28;20194;-70
2021/11/19 07:34:16;;;;;;;60.78;16.70;;;;;;;2.49;77.11;98875.94;5070565;28;20520;-70
2021/11/19 07:37:14;;;;;;;54.63;15.73;;;;;;;2.46;76.63;98876.97;5112746;28;20054;-72
2021/11/19 07:39:58;;;;;;;54.90;15.07;;;;;;;2.50;76.70;98862.81;5112287;28;20035;-70
2021/11/19 07:43:00;;;;;;;56.63;16.85;;;;;;;2.59;76.65;98861.44;5111725;28;20096;-69
2021/11/19 07:45:42;;;;;;;61.65;19.50;;;;;;;2.50;76.40;98867.19;5113542;28;20115;-70
2021/11/19 07:48:40;;;;;;;46.05;15.57;;;;;;;2.55;76.81;98857.34;5099027;28;20559;-71
2021/11/19 07:51:13;;;;;;;53.10;17.33;;;;;;;2.57;76.50;98858.09;5097098;28;20078;-66
2021/11/19 07:53:39;;;;;;;54.30;15.18;;;;;;;2.55;76.61;98858.16;5112898;28;20039;-71
2021/11/19 07:56:07;;;;;;;53.17;15.52;;;;;;;2.60;76.77;98852.69;5114337;28;20050;-69
2021/11/19 07:58:34;;;;;;;;;;;;;;;2.68;77.11;98853.09;5113823;28;20058;-71
2021/11/19 08:01:00;;;;;;;49.15;16.85;;;;;;;2.60;76.66;98847.47;5114674;28;19919;-69
2021/11/19 08:03:27;;;;;;;47.92;14.55;;;;;;;2.66;76.93;98856.72;5096955;28;20048;-72
2021/11/19 08:05:57;;;;;;;55.63;15.35;;;;;;;2.60;76.46;98857.91;5114122;28;20112;-68
2021/11/19 08:08:31;;;;;;;48.90;15.70;;;;;;;2.69;76.44;98854.78;5112567;28;20039;-70
2021/11/19 08:11:12;;;;;;;45.83;13.82;;;;;;;2.78;75.76;98866.47;5095366;28;20074;-70
2021/11/19 08:13:39;;;;;;;49.38;15.73;;;;;;;2.79;75.67;98856.84;5112133;28;20536;-70
2021/11/19 08:16:06;;;;;;;47.17;14.95;;;;;;;2.84;75.52;98857.41;5113721;28;20047;-70
2021/11/19 08:19:02;;;;;;;46.80;14.68;;;;;;;2.82;75.73;98848.84;5112584;28;20051;-72
2021/11/19 08:21:29;;;;;;;44.00;15.23;;;;;;;2.88;75.30;98846.72;5112525;28;20462;-68
2021/11/19 08:24:05;;;;;;;45.58;14.38;;;;;;;2.83;75.21;98843.53;5113674;28;20054;-71
2021/11/19 08:26:43;;;;;;;56.25;17.80;;;;;;;2.98;75.40;98841.78;5114007;28;20047;-70
2021/11/19 08:29:14;;;;;;;62.05;18.65;;;;;;;2.94;75.41;98842.91;5113796;28;20040;-77
2021/11/19 08:31:40;;;;;;;42.35;14.10;;;;;;;2.84;75.24;98839.13;5090843;28;20047;-69
2021/11/19 08:34:06;;;;;;;45.83;14.98;;;;;;;2.79;75.41;98844.66;5105906;28;20051;-71
2021/11/19 08:36:32;;;;;;;42.20;12.82;;;;;;;2.83;75.30;98842.66;5113361;28;20044;-70
2021/11/19 08:39:00;;;;;;;40.95;13.63;;;;;;;2.94;75.15;98842.91;5113000;28;20039;-73
2021/11/19 08:41:26;;;;;;;40.63;13.73;;;;;;;2.88;75.36;98840.66;5113730;28;20126;-70
2021/11/19 08:43:57;;;;;;;47.92;16.20;;;;;;;2.94;75.15;98840.28;5114669;28;20040;-74
2021/11/19 08:46:29;;;;;;;49.47;14.95;;;;;;;3.03;74.87;98839.72;5115063;28;20118;-74
2021/11/19 08:48:55;;;;;;;45.30;13.35;;;;;;;3.05;74.36;98831.81;5114819;28;20047;-71
2021/11/19 08:51:25;;;;;;;88.13;25.35;;;;;;;3.05;74.66;98829.19;5113315;28;20040;-70
2021/11/19 08:53:53;;;;;;;50.75;15.55;;;;;;;3.12;74.18;98827.91;5101093;28;20036;-71
2021/11/19 08:56:20;;;;;;;42.70;16.00;;;;;;;3.16;74.14;98831.16;5103454;28;20104;-70
2021/11/19 08:58:46;;;;;;;44.15;14.25;;;;;;;3.06;74.01;98823.88;5104266;28;20039;-73
2021/11/19 09:01:14;;;;;;;44.85;14.38;;;;;;;3.13;73.74;98823.50;5102662;28;20044;-71
2021/11/19 09:03:40;;;;;;;33.50;12.82;;;;;;;3.12;73.49;98827.06;5109352;28;20044;-70
2021/11/19 09:06:09;;;;;;;42.20;11.77;;;;;;;3.08;74.08;98824.63;5104484;28;20040;-72
2021/11/19 09:08:37;;;;;;;39.80;12.93;;;;;;;3.08;73.73;98818.56;5099791;28;20492;-69
2021/11/19 09:11:04;;;;;;;35.30;12.10;;;;;;;3.09;73.66;98817.66;5100782;28;20041;-71
2021/11/19 09:13:30;;;;;;;40.10;14.27;;;;;;;3.17;73.64;98820.63;5085089;28;20035;-71
2021/11/19 09:15:57;;;;;;;40.90;13.00;;;;;;;3.19;73.89;98812.69;5102653;28;20298;-72
2021/11/19 09:18:26;;;;;;;57.38;22.25;;;;;;;3.18;73.22;98811.84;5099561;28;20047;-74
2021/11/19 09:20:59;;;;;;;49.83;16.70;;;;;;;3.24;73.58;98808.03;5109080;28;20092;-70
2021/11/19 09:23:28;;;;;;;48.55;14.50;;;;;;;3.07;73.43;98809.88;5108910;28;20051;-69
2021/11/19 09:25:56;;;;;;;43.75;13.88;;;;;;;3.10;74.12;98802.78;5111168;28;20400;-71
2021/11/19 09:28:24;;;;;;;46.90;14.97;;;;;;;3.11;74.13;98799.25;5112076;28;20044;-73
2021/11/19 09:30:51;;;;;;;;;;;;;;;3.02;73.87;98793.66;5112390;28;20116;-72
2021/11/19 09:33:24;;;;;;;41.63;12.47;;;;;;;3.19;73.85;98795.25;5092383;28;19920;-73
2021/11/19 09:35:51;;;;;;;46.33;15.15;;;;;;;3.11;73.93;98788.81;5108782;28;20373;-71
2021/11/19 09:38:19;;;;;;;60.60;19.15;;;;;;;3.18;74.20;98798.78;5111486;28;20377;-69
2021/11/19 09:41:17;;;;;;;44.75;14.27;;;;;;;3.21;74.00;98784.69;5113162;28;20050;-71
2021/11/19 09:44:07;;;;;;;46.00;18.30;;;;;;;3.17;73.79;98780.59;5047479;28;20041;-70
2021/11/19 09:46:48;;;;;;;63.28;20.75;;;;;;;3.24;74.22;98779.28;5052945;28;20094;-72
2021/11/19 09:49:43;;;;;;;58.05;17.45;;;;;;;3.34;73.64;98771.69;5050567;28;20049;-70
2021/11/19 09:52:39;;;;;;;48.60;15.95;;;;;;;3.36;73.87;98778.50;5035439;28;20406;-77
2021/11/19 09:55:27;;;;;;;53.83;18.83;;;;;;;3.42;73.43;98763.41;5016234;28;20060;-74
2021/11/19 09:58:00;;;;;;;42.55;15.60;;;;;;;3.42;72.87;98763.41;5017219;28;20117;-70
2021/11/19 10:00:44;;;;;;;43.78;14.23;;;;;;;3.29;73.25;98758.94;5031925;28;20488;-70
2021/11/19 10:03:13;;;;;;;44.00;14.25;;;;;;;3.27;73.23;98760.78;5049679;28;20040;-71
2021/11/19 10:05:50;;;;;;;41.85;14.23;;;;;;;3.18;73.32;98743.91;5048733;28;20049;-72
2021/11/19 10:08:41;;;;;;;39.13;15.57;;;;;;;3.27;73.36;98747.72;5048624;28;20425;-70
2021/11/19 10:11:25;;;;;;;51.80;17.00;;;;;;;3.26;73.24;98751.28;5046382;28;20025;-71
2021/11/19 10:14:16;;;;;;;47.85;15.95;;;;;;;3.27;73.22;98741.69;5033310;28;20076;-73
2021/11/19 10:16:44;;;;;;;75.35;25.42;;;;;;;3.38;73.03;98734.00;5035814;28;20127;-73
2021/11/19 10:19:22;;;;;;;54.85;18.50;;;;;;;3.46;72.56;98736.13;5051153;28;20041;-72
2021/11/19 10:22:24;;;;;;;63.92;20.38;;;;;;;3.35;73.03;98734.19;5114103;28;20395;-69
2021/11/19 10:25:11;;;;;;;61.65;20.00;;;;;;;3.28;72.88;98728.50;5095612;28;20047;-70
2021/11/19 10:27:49;;;;;;;79.07;30.45;;;;;;;3.23;73.28;98727.97;5111259;28;20055;-69
2021/11/19 10:30:34;;;;;;;;;;;;;;;3.35;73.22;98724.59;5112250;28;20048;-71
2021/11/19 10:33:09;;;;;;;54.95;17.00;;;;;;;3.39;72.80;98715.59;5113428;28;20014;-72
2021/11/19 10:35:52;;;;;;;78.30;24.73;;;;;;;3.33;73.22;98723.00;5081245;28;20492;-72
2021/11/19 10:38:27;;;;;;;66.57;21.48;;;;;;;3.21;73.51;98716.75;5121482;28;20036;-75
2021/11/19 10:41:27;;;;;;;50.90;16.48;;;;;;;3.21;73.23;98714.16;5097839;28;20055;-71
2021/11/19 10:44:14;;;;;;;43.58;14.48;;;;;;;3.12;73.41;98707.72;5087699;28;20055;-72
2021/11/19 10:47:05;;;;;;;52.35;15.73;;;;;;;3.19;73.64;98716.00;5093742;28;20065;-69
2021/11/19 10:50:07;;;;;;;56.13;18.20;;;;;;;3.12;73.62;98702.50;5108438;28;20040;-70
2021/11/19 10:53:09;;;;;;;41.40;14.60;;;;;;;3.11;74.10;98700.81;5064440;28;20048;-72
2021/11/19 10:56:06;;;;;;;45.75;15.98;;;;;;;3.13;74.09;98700.72;5092185;28;20131;-72
2021/11/19 10:59:00;;;;;;;41.92;13.73;;;;;;;3.13;74.07;98698.09;5097059;28;20134;-70
2021/11/19 11:01:56;;;;;;;43.10;14.32;;;;;;;3.19;73.62;98703.78;5115121;28;20131;-72
2021/11/19 11:04:37;;;;;;;49.55;14.13;;;;;;;3.19;73.84;98693.34;5114964;28;20039;-72
2021/11/19 11:07:24;;;;;;;42.28;14.20;;;;;;;3.26;73.95;98699.00;5108406;28;20036;-71
2021/11/19 11:10:09;;;;;;;43.20;14.57;;;;;;;3.19;73.51;98695.97;5088522;27;20046;-71
2021/11/19 11:12:34;;;;;;;47.00;14.30;;;;;;;3.26;73.55;98695.56;5115121;28;20044;-70
2021/11/19 11:15:06;;;;;;;45.63;15.05;;;;;;;3.36;73.18;98688.81;5115541;28;20055;-70
2021/11/19 11:17:35;;;;;;;42.10;13.63;;;;;;;3.32;73.05;98692.56;5114303;28;20089;-74
2021/11/19 11:20:20;;;;;;;46.63;14.38;;;;;;;3.29;73.26;98685.78;5118158;28;20039;-73
2021/11/19 11:22:56;;;;;;;43.22;13.93;;;;;;;3.21;73.46;98690.63;5116783;28;20050;-72
2021/11/19 11:25:34;;;;;;;49.53;13.95;;;;;;;3.26;73.51;98685.94;5115842;28;20051;-71
2021/11/19 11:28:00;;;;;;;39.15;13.50;;;;;;;3.23;73.52;98686.97;5117457;28;20035;-75
2021/11/19 11:30:45;;;;;;;43.75;14.25;;;;;;;3.11;73.67;98673.88;5120327;28;20385;-75
2021/11/19 11:33:17;;;;;;;41.85;13.50;;;;;;;3.15;74.00;98684.00;5113467;28;20460;-74
2021/11/19 11:36:08;;;;;;;44.35;15.23;;;;;;;3.17;74.10;98689.97;5116324;28;20047;-72
2021/11/19 11:39:01;;;;;;;36.65;13.10;;;;;;;3.22;73.71;98687.09;5116637;28;20083;-73
2021/11/19 11:41:41;;;;;;;45.70;14.55;;;;;;;3.20;73.62;98683.72;5105842;28;20032;-74
2021/11/19 11:44:19;;;;;;;43.33;13.60;;;;;;;3.18;74.33;98670.75;5102125;28;20078;-76
2021/11/19 11:46:50;;;;;;;53.25;15.90;;;;;;;3.15;74.16;98672.72;5101749;28;20035;-73
2021/11/19 11:49:44;;;;;;;42.17;16.02;;;;;;;3.13;74.25;98671.97;5106206;28;20040;-71
2021/11/19 11:52:32;;;;;;;43.17;15.55;;;;;;;3.11;74.44;98674.69;5087224;28;20039;-70
2021/11/19 11:55:32;;;;;;;44.72;15.15;;;;;;;3.15;74.37;98670.13;5099642;28;20049;-74
2021/11/19 11:58:28;;;;;;;39.55;13.77;;;;;;;3.18;73.69;98675.16;5108714;28;20221;-74